createdAt,value
2016-04-22T00:00:17.022Z,1015.24
2016-04-22T00:01:17.057Z,1015.23
2016-04-22T00:02:17.091Z,1015.19
2016-04-22T00:03:17.124Z,1015.18
2016-04-22T00:04:17.152Z,1015.18
2016-04-22T00:05:17.186Z,1015.16
2016-04-22T00:06:17.220Z,1015.16
2016-04-22T00:07:17.254Z,1015.18
2016-04-22T00:08:17.288Z,1015.16
2016-04-22T00:09:17.322Z,1015.16
2016-04-22T00:10:17.340Z,1015.16
2016-04-22T00:11:17.374Z,1015.18
2016-04-22T00:12:17.408Z,1015.17
2016-04-22T00:13:17.458Z,1015.14
2016-04-22T00:14:17.476Z,1015.17
2016-04-22T00:15:17.510Z,1015.15
2016-04-22T00:16:17.544Z,1015.21
2016-04-22T00:17:17.577Z,1015.17
2016-04-22T00:18:17.597Z,1015.17
2016-04-22T00:19:17.630Z,1015.17
2016-04-22T00:20:17.664Z,1015.17
2016-04-22T00:21:17.698Z,1015.19
2016-04-22T00:22:17.732Z,1015.17
2016-04-22T00:23:17.766Z,1015.15
2016-04-22T00:24:17.800Z,1015.15
2016-04-22T00:25:17.834Z,1015.11
2016-04-22T00:26:17.868Z,1015.15
2016-04-22T00:27:17.902Z,1015.11
2016-04-22T00:28:17.935Z,1015.11
2016-04-22T00:29:17.970Z,1015.11
2016-04-22T00:30:18.004Z,1015.12
2016-04-22T00:31:18.022Z,1015.14
2016-04-22T00:32:18.056Z,1015.08
2016-04-22T00:33:18.090Z,1015.1
2016-04-22T00:34:18.123Z,1015.1
2016-04-22T00:35:18.157Z,1015.09
2016-04-22T00:36:18.193Z,1015.08
2016-04-22T00:37:18.227Z,1015.04
2016-04-22T00:38:18.261Z,1015.03
2016-04-22T00:39:18.279Z,1015.05
2016-04-22T00:40:18.313Z,1015.02
2016-04-22T00:41:18.347Z,1015.01
2016-04-22T00:42:18.380Z,1014.98
2016-04-22T00:43:18.414Z,1015.02
2016-04-22T00:44:18.449Z,1014.96
2016-04-22T00:45:18.482Z,1014.97
2016-04-22T00:46:18.516Z,1014.95
2016-04-22T00:47:18.550Z,1014.95
2016-04-22T00:48:18.568Z,1014.94
2016-04-22T00:49:18.602Z,1014.94
2016-04-22T00:50:18.637Z,1014.92
2016-04-22T00:51:18.670Z,1014.92
2016-04-22T00:52:18.704Z,1014.87
2016-04-22T00:53:18.739Z,1014.91
2016-04-22T00:54:18.773Z,1014.88
2016-04-22T00:55:18.806Z,1014.87
2016-04-22T00:56:18.839Z,1014.83
2016-04-22T00:57:18.858Z,1014.85
2016-04-22T00:58:18.892Z,1014.92
2016-04-22T00:59:18.926Z,1014.86
2016-04-22T01:00:18.960Z,1014.85
2016-04-22T01:01:18.994Z,1014.86
2016-04-22T01:02:19.027Z,1014.9
2016-04-22T01:03:19.061Z,1014.91
2016-04-22T01:04:19.096Z,1014.92
2016-04-22T01:05:19.130Z,1014.98
2016-04-22T01:06:19.148Z,1015.05
2016-04-22T01:07:19.182Z,1015.03
2016-04-22T01:08:19.216Z,1015.03
2016-04-22T01:09:19.249Z,1015.02
2016-04-22T01:10:19.284Z,1015.01
2016-04-22T01:11:19.318Z,1014.95
2016-04-22T01:12:19.352Z,1014.95
2016-04-22T01:13:19.370Z,1014.97
2016-04-22T01:14:19.404Z,1014.99
2016-04-22T01:15:19.438Z,1014.92
2016-04-22T01:16:19.471Z,1014.95
2016-04-22T01:17:19.506Z,1014.96
2016-04-22T01:18:19.540Z,1014.92
2016-04-22T01:19:19.573Z,1014.91
2016-04-22T01:20:19.592Z,1014.95
2016-04-22T01:21:19.626Z,1014.92
2016-04-22T01:22:19.660Z,1014.93
2016-04-22T01:23:19.694Z,1014.96
2016-04-22T01:24:19.728Z,1014.96
2016-04-22T01:25:19.762Z,1014.96
2016-04-22T01:26:19.795Z,1014.95
2016-04-22T01:27:19.814Z,1014.95
2016-04-22T01:28:19.848Z,1014.93
2016-04-22T01:29:19.881Z,1014.91
2016-04-22T01:30:19.916Z,1014.89
2016-04-22T01:31:19.950Z,1014.86
2016-04-22T01:32:19.983Z,1014.87
2016-04-22T01:33:20.017Z,1014.9
2016-04-22T01:34:20.052Z,1014.91
2016-04-22T01:35:20.070Z,1014.91
2016-04-22T01:36:20.104Z,1014.86
2016-04-22T01:37:20.138Z,1014.91
2016-04-22T01:38:20.172Z,1014.89
2016-04-22T01:39:20.205Z,1014.87
2016-04-22T01:40:20.240Z,1014.89
2016-04-22T01:41:20.274Z,1014.87
2016-04-22T01:42:20.292Z,1014.93
2016-04-22T01:43:20.326Z,1014.91
2016-04-22T01:44:20.360Z,1014.92
2016-04-22T01:45:20.393Z,1015.01
2016-04-22T01:46:20.427Z,1015.05
2016-04-22T01:47:20.462Z,1015.03
2016-04-22T01:48:20.480Z,1015.08
2016-04-22T01:49:20.514Z,1015.05
2016-04-22T01:50:20.548Z,1015.07
2016-04-22T01:51:20.582Z,1015.07
2016-04-22T01:52:20.615Z,1015.05
2016-04-22T01:53:20.650Z,1015.04
2016-04-22T01:54:20.668Z,1015.03
2016-04-22T01:55:20.702Z,1014.99
2016-04-22T01:56:20.736Z,1015.02
2016-04-22T01:57:20.770Z,1015.03
2016-04-22T01:58:20.803Z,1015.04
2016-04-22T01:59:20.837Z,1015.03
2016-04-22T02:00:20.872Z,1015.05
2016-04-22T02:01:20.906Z,1015.04
2016-04-22T02:02:20.924Z,1015.04
2016-04-22T02:03:20.958Z,1015.06
2016-04-22T02:04:20.992Z,1015.05
2016-04-22T02:05:21.025Z,1015.03
2016-04-22T02:06:21.060Z,1015.05
2016-04-22T02:07:21.094Z,1014.97
2016-04-22T02:08:21.112Z,1015
2016-04-22T02:09:21.146Z,1015.02
2016-04-22T02:10:21.180Z,1015.01
2016-04-22T02:11:21.214Z,1014.96
2016-04-22T02:12:21.247Z,1014.98
2016-04-22T02:13:21.282Z,1014.97
2016-04-22T02:14:21.300Z,1015
2016-04-22T02:15:21.334Z,1015.04
2016-04-22T02:16:21.368Z,1015.05
2016-04-22T02:17:21.402Z,1015.01
2016-04-22T02:18:21.435Z,1015.04
2016-04-22T02:19:21.454Z,1015.04
2016-04-22T02:20:21.488Z,1015.07
2016-04-22T02:21:21.522Z,1015.06
2016-04-22T02:22:21.556Z,1015.05
2016-04-22T02:23:21.590Z,1015.03
2016-04-22T02:24:21.623Z,1015.04
2016-04-22T02:25:21.657Z,1015.07
2016-04-22T02:26:21.676Z,1015.09
2016-04-22T02:27:21.710Z,1015.09
2016-04-22T02:28:21.744Z,1015.08
2016-04-22T02:29:21.778Z,1015.13
2016-04-22T02:30:21.796Z,1015.09
2016-04-22T02:31:21.845Z,1015.09
2016-04-22T02:32:21.880Z,1015.08
2016-04-22T02:33:21.897Z,1015.1
2016-04-22T02:34:21.931Z,1015.09
2016-04-22T02:35:21.966Z,1015.06
2016-04-22T02:36:21.984Z,1015.11
2016-04-22T02:37:22.018Z,1015.06
2016-04-22T02:38:22.052Z,1015.09
2016-04-22T02:39:22.086Z,1015.09
2016-04-22T02:40:22.119Z,1015.1
2016-04-22T02:41:22.138Z,1015.06
2016-04-22T02:42:22.172Z,1015.09
2016-04-22T02:43:22.206Z,1015.07
2016-04-22T02:44:22.240Z,1015.07
2016-04-22T02:45:22.258Z,1015.04
2016-04-22T02:46:22.307Z,1015.05
2016-04-22T02:47:22.326Z,1015.04
2016-04-22T02:48:22.360Z,1015.01
2016-04-22T02:49:22.393Z,1015.05
2016-04-22T02:50:22.428Z,1015.07
2016-04-22T02:51:22.446Z,1015.09
2016-04-22T02:52:22.496Z,1015.1
2016-04-22T02:53:22.514Z,1015.09
2016-04-22T02:54:22.548Z,1015.05
2016-04-22T02:55:22.581Z,1015.06
2016-04-22T02:56:22.616Z,1015.05
2016-04-22T02:57:22.635Z,1015.09
2016-04-22T02:58:22.667Z,1015.09
2016-04-22T02:59:22.703Z,1015.11
2016-04-22T03:00:22.720Z,1015.06
2016-04-22T03:01:22.754Z,1015.07
2016-04-22T03:02:22.789Z,1015.06
2016-04-22T03:03:22.822Z,1015.06
2016-04-22T03:04:22.856Z,1015.08
2016-04-22T03:05:22.889Z,1015.04
2016-04-22T03:06:22.908Z,1015
2016-04-22T03:07:22.942Z,1014.99
2016-04-22T03:08:22.976Z,1015.01
2016-04-22T03:09:23.010Z,1014.99
2016-04-22T03:10:23.028Z,1014.95
2016-04-22T03:11:23.063Z,1014.93
2016-04-22T03:12:23.097Z,1014.94
2016-04-22T03:13:23.130Z,1014.95
2016-04-22T03:14:23.164Z,1015.01
2016-04-22T03:15:23.183Z,1014.99
2016-04-22T03:16:23.216Z,1014.97
2016-04-22T03:17:23.251Z,1014.96
2016-04-22T03:18:23.285Z,1014.95
2016-04-22T03:19:23.318Z,1014.96
2016-04-22T03:20:23.337Z,1014.97
2016-04-22T03:21:23.371Z,1014.98
2016-04-22T03:22:23.404Z,1014.95
2016-04-22T03:23:23.438Z,1014.96
2016-04-22T03:24:23.473Z,1014.93
2016-04-22T03:25:23.491Z,1014.95
2016-04-22T03:26:23.526Z,1015
2016-04-22T03:27:23.574Z,1014.98
2016-04-22T03:28:23.593Z,1014.93
2016-04-22T03:29:23.626Z,1014.93
2016-04-22T03:30:23.676Z,1014.94
2016-04-22T03:31:23.679Z,1014.93
2016-04-22T03:32:23.712Z,1014.96
2016-04-22T03:33:23.747Z,1014.95
2016-04-22T03:34:23.780Z,1014.98
2016-04-22T03:35:23.814Z,1015.01
2016-04-22T03:36:23.833Z,1014.97
2016-04-22T03:37:23.866Z,1015
2016-04-22T03:38:23.901Z,1015
2016-04-22T03:39:23.935Z,1015
2016-04-22T03:40:23.969Z,1015.02
2016-04-22T03:41:24.003Z,1015.03
2016-04-22T03:42:24.036Z,1015
2016-04-22T03:43:24.055Z,1015.03
2016-04-22T03:44:24.089Z,1015.07
2016-04-22T03:45:24.122Z,1015.03
2016-04-22T03:46:24.157Z,1015
2016-04-22T03:47:24.175Z,1015
2016-04-22T03:48:24.209Z,1015
2016-04-22T03:49:24.243Z,1014.98
2016-04-22T03:50:24.276Z,1014.95
2016-04-22T03:51:24.310Z,1014.96
2016-04-22T03:52:24.329Z,1015.01
2016-04-22T03:53:24.363Z,1014.99
2016-04-22T03:54:24.397Z,1014.97
2016-04-22T03:55:24.432Z,1014.95
2016-04-22T03:56:24.449Z,1014.96
2016-04-22T03:57:24.484Z,1014.95
2016-04-22T03:58:24.517Z,1014.97
2016-04-22T03:59:24.551Z,1014.94
2016-04-22T04:00:24.585Z,1014.95
2016-04-22T04:01:24.619Z,1014.92
2016-04-22T04:02:24.653Z,1014.95
2016-04-22T04:03:24.670Z,1014.96
2016-04-22T04:04:24.705Z,1014.94
2016-04-22T04:05:24.739Z,1014.96
2016-04-22T04:06:24.772Z,1014.98
2016-04-22T04:07:24.807Z,1014.99
2016-04-22T04:08:24.825Z,1014.98
2016-04-22T04:09:24.859Z,1014.95
2016-04-22T04:10:24.894Z,1014.97
2016-04-22T04:11:24.927Z,1014.96
2016-04-22T04:12:24.945Z,1014.97
2016-04-22T04:13:24.994Z,1014.99
2016-04-22T04:14:25.029Z,1014.97
2016-04-22T04:15:25.047Z,1014.96
2016-04-22T04:16:25.080Z,1014.92
2016-04-22T04:17:25.115Z,1014.89
2016-04-22T04:18:25.149Z,1014.88
2016-04-22T04:19:25.167Z,1014.95
2016-04-22T04:20:25.201Z,1014.95
2016-04-22T04:21:25.235Z,1014.94
2016-04-22T04:22:25.283Z,1014.99
2016-04-22T04:23:25.340Z,1014.96
2016-04-22T04:24:25.414Z,1015
2016-04-22T04:25:25.486Z,1015.03
2016-04-22T04:26:25.560Z,1015.04
2016-04-22T04:27:25.622Z,1015
2016-04-22T04:28:25.670Z,1014.99
2016-04-22T04:29:25.704Z,1015.05
2016-04-22T04:30:25.751Z,1014.97
2016-04-22T04:31:25.799Z,1014.97
2016-04-22T04:32:25.844Z,1014.99
2016-04-22T04:33:25.883Z,1014.98
2016-04-22T04:34:25.906Z,1015.01
2016-04-22T04:35:25.945Z,1014.98
2016-04-22T04:36:25.985Z,1014.98
2016-04-22T04:37:26.021Z,1014.99
2016-04-22T04:38:26.057Z,1015
2016-04-22T04:39:26.078Z,1014.99
2016-04-22T04:40:26.113Z,1014.95
2016-04-22T04:41:26.150Z,1014.96
2016-04-22T04:42:26.185Z,1014.99
2016-04-22T04:43:26.219Z,1015.01
2016-04-22T04:44:26.253Z,1015
2016-04-22T04:45:26.272Z,1014.99
2016-04-22T04:46:26.306Z,1015.04
2016-04-22T04:47:26.356Z,1014.98
2016-04-22T04:48:26.376Z,1015.01
2016-04-22T04:49:26.394Z,1015.02
2016-04-22T04:50:26.444Z,1015.02
2016-04-22T04:51:26.463Z,1015.04
2016-04-22T04:52:26.497Z,1015.04
2016-04-22T04:53:26.531Z,1015.04
2016-04-22T04:54:26.565Z,1015.01
2016-04-22T04:55:26.599Z,1015.04
2016-04-22T04:56:26.616Z,1015.05
2016-04-22T04:57:26.651Z,1015.01
2016-04-22T04:58:26.701Z,1015.03
2016-04-22T04:59:26.718Z,1015.01
2016-04-22T05:00:26.752Z,1015.01
2016-04-22T05:01:26.787Z,1015.04
2016-04-22T05:02:26.820Z,1015.04
2016-04-22T05:03:26.839Z,1015.04
2016-04-22T05:04:26.873Z,1015.04
2016-04-22T05:05:26.907Z,1015.04
2016-04-22T05:06:26.941Z,1015.05
2016-04-22T05:07:26.975Z,1015.05
2016-04-22T05:08:27.009Z,1015.04
2016-04-22T05:09:27.027Z,1015.02
2016-04-22T05:10:27.061Z,1015.05
2016-04-22T05:11:27.096Z,1015.03
2016-04-22T05:12:27.129Z,1015.1
2016-04-22T05:13:27.163Z,1015.07
2016-04-22T05:14:27.182Z,1015.07
2016-04-22T05:15:27.232Z,1015.1
2016-04-22T05:16:27.250Z,1015.1
2016-04-22T05:17:27.284Z,1015.08
2016-04-22T05:18:27.318Z,1015.01
2016-04-22T05:19:27.352Z,1015.02
2016-04-22T05:20:27.370Z,1015.01
2016-04-22T05:21:27.420Z,1014.99
2016-04-22T05:22:27.438Z,1015
2016-04-22T05:23:27.472Z,1015.07
2016-04-22T05:24:27.522Z,1014.99
2016-04-22T05:25:27.539Z,1015.04
2016-04-22T05:26:27.573Z,1015.06
2016-04-22T05:27:27.608Z,1015.08
2016-04-22T05:28:27.626Z,1015.11
2016-04-22T05:29:27.660Z,1015.11
2016-04-22T05:30:27.694Z,1015.1
2016-04-22T05:31:27.728Z,1015.06
2016-04-22T05:32:27.761Z,1015.07
2016-04-22T05:33:27.796Z,1015.03
2016-04-22T05:34:27.830Z,1015
2016-04-22T05:35:27.863Z,1015.01
2016-04-22T05:36:27.882Z,1015.03
2016-04-22T05:37:27.916Z,1015.05
2016-04-22T05:38:27.950Z,1015.03
2016-04-22T05:39:27.984Z,1015.07
2016-04-22T05:40:28.017Z,1015.11
2016-04-22T05:41:28.052Z,1015.09
2016-04-22T05:42:28.085Z,1015.05
2016-04-22T05:43:28.119Z,1015.07
2016-04-22T05:44:28.154Z,1015.04
2016-04-22T05:45:28.187Z,1015.06
2016-04-22T05:46:28.206Z,1015.08
2016-04-22T05:47:28.240Z,1015.1
2016-04-22T05:48:28.289Z,1015.11
2016-04-22T05:49:28.307Z,1015.08
2016-04-22T05:50:28.341Z,1015.08
2016-04-22T05:51:28.375Z,1015.07
2016-04-22T05:52:28.409Z,1015.1
2016-04-22T05:53:28.442Z,1015.05
2016-04-22T05:54:28.477Z,1015.05
2016-04-22T05:55:28.511Z,1015.08
2016-04-22T05:56:28.545Z,1015.09
2016-04-22T05:57:28.578Z,1015.04
2016-04-22T05:58:28.614Z,1015.07
2016-04-22T05:59:28.647Z,1015.07
2016-04-22T06:00:28.681Z,1015.08
2016-04-22T06:01:28.714Z,1015.1
2016-04-22T06:02:28.733Z,1015.04
2016-04-22T06:03:28.767Z,1015.01
2016-04-22T06:04:28.801Z,1015.03
2016-04-22T06:05:28.835Z,1015.06
2016-04-22T06:06:28.869Z,1015.05
2016-04-22T06:07:28.903Z,1015.04
2016-04-22T06:08:28.937Z,1015.01
2016-04-22T06:09:28.970Z,1014.98
2016-04-22T06:10:29.004Z,1015
2016-04-22T06:11:29.038Z,1015.04
2016-04-22T06:12:29.072Z,1015
2016-04-22T06:13:29.106Z,1015.03
2016-04-22T06:14:29.141Z,1015.1
2016-04-22T06:15:29.173Z,1015.04
2016-04-22T06:16:29.207Z,1015.06
2016-04-22T06:17:29.226Z,1015.08
2016-04-22T06:18:29.260Z,1015.11
2016-04-22T06:19:29.294Z,1015.11
2016-04-22T06:20:29.328Z,1015.11
2016-04-22T06:21:29.362Z,1015.08
2016-04-22T06:22:29.395Z,1015.12
2016-04-22T06:23:29.430Z,1015.1
2016-04-22T06:24:29.464Z,1015.07
2016-04-22T06:25:29.498Z,1015.11
2016-04-22T06:26:29.532Z,1015.03
2016-04-22T06:27:29.566Z,1015.06
2016-04-22T06:28:29.600Z,1015.05
2016-04-22T06:29:29.633Z,1015
2016-04-22T06:30:29.668Z,1015.03
2016-04-22T06:31:29.686Z,1015.02
2016-04-22T06:32:29.736Z,1015.09
2016-04-22T06:33:29.770Z,1015.13
2016-04-22T06:34:29.788Z,1015.12
2016-04-22T06:35:29.822Z,1015.19
2016-04-22T06:36:29.856Z,1015.13
2016-04-22T06:37:29.889Z,1015.13
2016-04-22T06:38:29.924Z,1015.11
2016-04-22T06:39:29.957Z,1015.12
2016-04-22T06:40:29.991Z,1015.11
2016-04-22T06:41:30.025Z,1015.09
2016-04-22T06:42:30.059Z,1015.12
2016-04-22T06:43:30.093Z,1015.13
2016-04-22T06:44:30.127Z,1015.17
2016-04-22T06:45:30.161Z,1015.18
2016-04-22T06:46:30.195Z,1015.21
2016-04-22T06:47:30.229Z,1015.16
2016-04-22T06:48:30.263Z,1015.16
2016-04-22T06:49:30.297Z,1015.2
2016-04-22T06:50:30.331Z,1015.31
2016-04-22T06:51:30.365Z,1015.17
2016-04-22T06:52:30.398Z,1015.29
2016-04-22T06:53:30.433Z,1015.18
2016-04-22T06:54:30.466Z,1015.2
2016-04-22T06:55:30.500Z,1015.15
2016-04-22T06:56:30.534Z,1015.19
2016-04-22T06:57:30.568Z,1015.17
2016-04-22T06:58:30.603Z,1015.28
2016-04-22T06:59:30.637Z,1015.22
2016-04-22T07:00:30.670Z,1015.21
2016-04-22T07:01:30.703Z,1015.15
2016-04-22T07:02:30.738Z,1015.19
2016-04-22T07:03:30.756Z,1015.13
2016-04-22T07:04:30.806Z,1015.1
2016-04-22T07:05:30.824Z,1015.17
2016-04-22T07:06:30.858Z,1015.13
2016-04-22T07:07:31.267Z,1015.1
2016-04-22T07:08:30.926Z,1015.08
2016-04-22T07:09:30.960Z,1015.08
2016-04-22T07:10:30.994Z,1015.01
2016-04-22T07:11:31.028Z,1015.02
2016-04-22T07:12:31.313Z,1015
2016-04-22T07:13:31.094Z,1015.02
2016-04-22T07:14:31.127Z,1015.02
2016-04-22T07:15:31.146Z,1015.06
2016-04-22T07:16:31.195Z,1015.02
2016-04-22T07:17:32.151Z,1015.01
2016-04-22T07:18:31.247Z,1015
2016-04-22T07:19:31.281Z,1015.03
2016-04-22T07:20:31.315Z,1015.05
2016-04-22T07:21:31.349Z,1015.04
2016-04-22T07:22:32.320Z,1015.09
2016-04-22T07:23:31.417Z,1015.06
2016-04-22T07:24:31.451Z,1015.03
2016-04-22T07:25:31.484Z,1015.04
2016-04-22T07:26:31.518Z,1015.05
2016-04-22T07:27:31.787Z,1015.07
2016-04-22T07:28:31.586Z,1015.06
2016-04-22T07:29:31.620Z,1015.03
2016-04-22T07:30:31.654Z,1015.14
2016-04-22T07:31:31.673Z,1015.07
2016-04-22T07:32:32.520Z,1015.07
2016-04-22T07:33:31.741Z,1015.05
2016-04-22T07:34:31.774Z,1015.06
2016-04-22T07:35:31.809Z,1015.12
2016-04-22T07:36:31.842Z,1015.03
2016-04-22T07:37:31.892Z,1015.13
2016-04-22T07:38:31.911Z,1015.08
2016-04-22T07:39:31.944Z,1015.07
2016-04-22T07:40:31.994Z,1015.17
2016-04-22T07:41:32.013Z,1015.2
2016-04-22T07:42:33.811Z,1015.15
2016-04-22T07:43:32.080Z,1015.1
2016-04-22T07:44:32.114Z,1015.09
2016-04-22T07:45:32.148Z,1015.09
2016-04-22T07:46:32.182Z,1015.11
2016-04-22T07:47:33.107Z,1015.1
2016-04-22T07:48:32.249Z,1015.15
2016-04-22T07:49:32.268Z,1015.06
2016-04-22T07:50:32.302Z,1015.18
2016-04-22T07:51:32.335Z,1015.15
2016-04-22T07:52:33.135Z,1015.14
2016-04-22T07:53:32.404Z,1015.17
2016-04-22T07:54:32.437Z,1015.18
2016-04-22T07:55:32.471Z,1015.12
2016-04-22T07:56:32.506Z,1015.08
2016-04-22T07:57:32.571Z,1015.02
2016-04-22T07:58:32.574Z,1015.06
2016-04-22T07:59:32.608Z,1015.03
2016-04-22T08:00:32.642Z,1015.07
2016-04-22T08:01:32.676Z,1015.09
2016-04-22T08:02:32.709Z,1015.14
2016-04-22T08:03:32.742Z,1015.07
2016-04-22T08:04:32.778Z,1015.14
2016-04-22T08:05:32.796Z,1015.14
2016-04-22T08:06:32.829Z,1015.13
2016-04-22T08:07:32.879Z,1015.09
2016-04-22T08:08:32.897Z,1015.11
2016-04-22T08:09:32.931Z,1015.09
2016-04-22T08:10:32.966Z,1015.17
2016-04-22T08:11:32.999Z,1015.11
2016-04-22T08:12:33.033Z,1015.1
2016-04-22T08:13:33.067Z,1015.13
2016-04-22T08:14:33.163Z,1015.13
2016-04-22T08:15:33.135Z,1015.15
2016-04-22T08:16:33.169Z,1015.08
2016-04-22T08:17:33.202Z,1015.08
2016-04-22T08:18:33.237Z,1015.08
2016-04-22T08:19:33.271Z,1015.04
2016-04-22T08:20:33.289Z,1015.13
2016-04-22T08:21:33.338Z,1015.02
2016-04-22T08:22:33.373Z,1015.07
2016-04-22T08:23:33.391Z,1015.13
2016-04-22T08:24:33.424Z,1015.05
2016-04-22T08:25:33.474Z,1015.03
2016-04-22T08:26:33.493Z,1015.07
2016-04-22T08:27:33.542Z,1015.02
2016-04-22T08:28:33.560Z,1015.01
2016-04-22T08:29:33.610Z,1014.98
2016-04-22T08:30:33.628Z,1014.97
2016-04-22T08:31:33.662Z,1015
2016-04-22T08:32:33.696Z,1014.93
2016-04-22T08:33:33.730Z,1014.96
2016-04-22T08:34:33.764Z,1014.97
2016-04-22T08:35:33.798Z,1014.92
2016-04-22T08:36:33.831Z,1015.01
2016-04-22T08:37:33.882Z,1015.02
2016-04-22T08:38:33.900Z,1014.99
2016-04-22T08:39:33.933Z,1015
2016-04-22T08:40:33.967Z,1014.98
2016-04-22T08:41:34.002Z,1014.97
2016-04-22T08:42:34.036Z,1014.94
2016-04-22T08:43:34.070Z,1014.91
2016-04-22T08:44:34.135Z,1014.88
2016-04-22T08:45:34.138Z,1014.87
2016-04-22T08:46:34.188Z,1014.88
2016-04-22T08:47:34.205Z,1014.9
2016-04-22T08:48:34.239Z,1014.91
2016-04-22T08:49:34.274Z,1014.87
2016-04-22T08:50:34.307Z,1014.9
2016-04-22T08:51:34.357Z,1014.95
2016-04-22T08:52:34.374Z,1014.92
2016-04-22T08:53:34.425Z,1014.91
2016-04-22T08:54:34.459Z,1014.92
2016-04-22T08:55:34.493Z,1014.89
2016-04-22T08:56:34.527Z,1014.91
2016-04-22T08:57:34.545Z,1014.87
2016-04-22T08:58:34.594Z,1014.83
2016-04-22T08:59:34.628Z,1014.78
2016-04-22T09:00:34.663Z,1014.79
2016-04-22T09:01:34.696Z,1014.76
2016-04-22T09:02:34.731Z,1014.82
2016-04-22T09:03:34.764Z,1014.83
2016-04-22T09:04:34.798Z,1014.82
2016-04-22T09:05:34.832Z,1014.77
2016-04-22T09:06:34.866Z,1014.8
2016-04-22T09:07:34.900Z,1014.79
2016-04-22T09:08:34.934Z,1014.79
2016-04-22T09:09:34.984Z,1014.77
2016-04-22T09:10:35.017Z,1014.79
2016-04-22T09:11:35.051Z,1014.76
2016-04-22T09:12:35.085Z,1014.75
2016-04-22T09:13:35.119Z,1014.71
2016-04-22T09:14:35.340Z,1014.66
2016-04-22T09:15:35.186Z,1014.64
2016-04-22T09:16:35.222Z,1014.66
2016-04-22T09:17:35.271Z,1014.63
2016-04-22T09:18:35.305Z,1014.65
2016-04-22T09:19:35.338Z,1014.67
2016-04-22T09:20:35.372Z,1014.65
2016-04-22T09:21:35.407Z,1014.63
2016-04-22T09:22:35.440Z,1014.64
2016-04-22T09:23:35.481Z,1014.65
2016-04-22T09:24:35.515Z,1014.59
2016-04-22T09:25:35.548Z,1014.6
2016-04-22T09:26:35.598Z,1014.62
2016-04-22T09:27:35.633Z,1014.63
2016-04-22T09:28:35.666Z,1014.6
2016-04-22T09:29:35.701Z,1014.6
2016-04-22T09:30:35.734Z,1014.55
2016-04-22T09:31:35.768Z,1014.56
2016-04-22T09:32:35.803Z,1014.48
2016-04-22T09:33:35.836Z,1014.49
2016-04-22T09:34:35.885Z,1014.46
2016-04-22T09:35:35.920Z,1014.4
2016-04-22T09:36:35.954Z,1014.45
2016-04-22T09:37:35.988Z,1014.4
2016-04-22T09:38:36.023Z,1014.4
2016-04-22T09:39:36.056Z,1014.36
2016-04-22T09:40:36.090Z,1014.37
2016-04-22T09:41:36.124Z,1014.36
2016-04-22T09:42:36.174Z,1014.35
2016-04-22T09:43:36.208Z,1014.37
2016-04-22T09:44:36.241Z,1014.35
2016-04-22T09:45:36.275Z,1014.33
2016-04-22T09:46:36.310Z,1014.34
2016-04-22T09:47:36.344Z,1014.33
2016-04-22T09:48:36.378Z,1014.29
2016-04-22T09:49:36.411Z,1014.26
2016-04-22T09:50:36.446Z,1014.26
2016-04-22T09:51:36.494Z,1014.24
2016-04-22T09:52:36.529Z,1014.18
2016-04-22T09:53:36.562Z,1014.18
2016-04-22T09:54:36.596Z,1014.13
2016-04-22T09:55:36.630Z,1014.12
2016-04-22T09:56:36.665Z,1014.11
2016-04-22T09:57:36.715Z,1014.14
2016-04-22T09:58:36.748Z,1014.08
2016-04-22T09:59:36.766Z,1014.13
2016-04-22T10:00:36.815Z,1014.11
2016-04-22T10:01:36.850Z,1014.09
2016-04-22T10:02:36.884Z,1014.17
2016-04-22T10:03:36.917Z,1014.11
2016-04-22T10:04:36.952Z,1014.11
2016-04-22T10:05:37.000Z,1014.05
2016-04-22T10:06:37.020Z,1014.02
2016-04-22T10:07:37.069Z,1013.99
2016-04-22T10:13:38.290Z,1013.96
2016-04-22T10:14:38.324Z,1013.92
2016-04-22T10:15:38.358Z,1013.98
2016-04-22T10:16:38.393Z,1013.92
2016-04-22T10:17:38.426Z,1013.92
2016-04-22T10:18:38.460Z,1013.9
2016-04-22T10:19:38.541Z,1013.84
2016-04-22T10:20:38.529Z,1013.87
2016-04-22T10:21:38.562Z,1013.87
2016-04-22T10:22:38.596Z,1013.87
2016-04-22T10:23:38.629Z,1013.9
2016-04-22T10:24:38.679Z,1013.9
2016-04-22T10:25:38.713Z,1013.85
2016-04-22T10:26:38.747Z,1013.85
2016-04-22T10:27:38.797Z,1013.82
2016-04-22T10:28:38.815Z,1013.91
2016-04-22T10:29:38.849Z,1013.82
2016-04-22T10:30:38.883Z,1013.82
2016-04-22T10:31:38.917Z,1013.8
2016-04-22T10:32:38.951Z,1013.82
2016-04-22T10:33:38.985Z,1013.74
2016-04-22T10:34:39.020Z,1013.77
2016-04-22T10:35:39.053Z,1013.79
2016-04-22T10:36:39.086Z,1013.82
2016-04-22T10:37:39.136Z,1013.77
2016-04-22T10:38:39.170Z,1013.74
2016-04-22T10:39:39.205Z,1013.69
2016-04-22T10:40:39.238Z,1013.67
2016-04-22T10:41:39.288Z,1013.69
2016-04-22T10:42:39.306Z,1013.72
2016-04-22T10:43:39.341Z,1013.65
2016-04-22T10:44:39.374Z,1013.64
2016-04-22T10:45:39.408Z,1013.6
2016-04-22T10:46:39.441Z,1013.55
2016-04-22T10:47:39.476Z,1013.54
2016-04-22T10:48:39.525Z,1013.51
2016-04-22T10:49:39.559Z,1013.54
2016-04-22T10:50:39.593Z,1013.48
2016-04-22T10:52:39.660Z,1013.46
2016-04-22T10:53:39.695Z,1013.44
2016-04-22T10:54:39.745Z,1013.45
2016-04-22T10:55:39.762Z,1013.43
2016-04-22T10:56:39.812Z,1013.4
2016-04-22T10:57:39.846Z,1013.35
2016-04-22T10:58:39.880Z,1013.35
2016-04-22T10:59:39.914Z,1013.32
2016-04-22T11:00:39.948Z,1013.33
2016-04-22T11:01:39.998Z,1013.29
2016-04-22T11:02:40.031Z,1013.31
2016-04-22T11:03:40.050Z,1013.29
2016-04-22T11:04:40.099Z,1013.27
2016-04-22T11:05:40.134Z,1013.23
2016-04-22T11:06:40.168Z,1013.3
2016-04-22T11:07:40.201Z,1013.27
2016-04-22T11:08:40.235Z,1013.26
2016-04-22T11:09:40.285Z,1013.29
2016-04-22T11:10:40.319Z,1013.3
2016-04-22T11:11:40.352Z,1013.3
2016-04-22T11:12:40.386Z,1013.26
2016-04-22T11:13:40.421Z,1013.19
2016-04-22T11:14:40.455Z,1013.21
2016-04-22T11:15:40.504Z,1013.23
2016-04-22T11:16:40.522Z,1013.25
2016-04-22T11:17:40.602Z,1013.23
2016-04-22T11:18:40.605Z,1013.21
2016-04-22T11:19:40.640Z,1013.21
2016-04-22T11:20:40.674Z,1013.24
2016-04-22T11:21:40.700Z,1013.21
2016-04-22T11:22:40.733Z,1013.16
2016-04-22T11:23:40.767Z,1013.16
2016-04-22T11:24:40.817Z,1013.14
2016-04-22T11:25:40.850Z,1013.15
2016-04-22T11:26:40.931Z,1013.23
2016-04-22T11:27:41.590Z,1013.17
2016-04-22T11:28:40.953Z,1013.16
2016-04-22T11:29:41.095Z,1013.12
2016-04-22T11:30:41.286Z,1013.11
2016-04-22T11:31:41.492Z,1013.13
2016-04-22T11:32:41.104Z,1013.12
2016-04-22T11:33:41.138Z,1013.09
2016-04-22T11:34:41.171Z,1013.09
2016-04-22T11:35:41.206Z,1013.16
2016-04-22T11:36:41.239Z,1013.11
2016-04-22T11:37:41.273Z,1013.13
2016-04-22T11:38:41.322Z,1013.14
2016-04-22T11:39:41.341Z,1013.13
2016-04-22T11:40:41.407Z,1013.11
2016-04-22T11:41:41.424Z,1013.16
2016-04-22T11:42:41.458Z,1013.11
2016-04-22T11:43:41.493Z,1013.06
2016-04-22T11:44:41.527Z,1013.01
2016-04-22T11:45:41.560Z,1012.97
2016-04-22T11:46:41.593Z,1013.02
2016-04-22T11:47:41.643Z,1013.03
2016-04-22T11:48:41.662Z,1012.99
2016-04-22T11:49:41.712Z,1012.95
2016-04-22T11:50:41.729Z,1012.93
2016-04-22T11:51:41.779Z,1012.95
2016-04-22T11:52:41.814Z,1012.91
2016-04-22T11:53:41.848Z,1012.94
2016-04-22T11:54:41.881Z,1012.88
2016-04-22T11:55:42.025Z,1012.83
2016-04-22T11:56:41.995Z,1012.85
2016-04-22T11:57:41.984Z,1012.85
2016-04-22T11:58:42.017Z,1012.8
2016-04-22T11:59:42.051Z,1012.8
2016-04-22T12:00:42.101Z,1012.83
2016-04-22T12:01:42.134Z,1012.81
2016-04-22T12:02:42.169Z,1012.77
2016-04-22T12:03:42.203Z,1012.74
2016-04-22T12:04:42.236Z,1012.75
2016-04-22T12:05:42.270Z,1012.73
2016-04-22T12:06:42.305Z,1012.68
2016-04-22T12:07:42.338Z,1012.7
2016-04-22T12:08:42.388Z,1012.67
2016-04-22T12:09:42.422Z,1012.65
2016-04-22T12:10:42.455Z,1012.61
2016-04-22T12:11:42.490Z,1012.58
2016-04-22T12:12:42.523Z,1012.61
2016-04-22T12:13:42.557Z,1012.62
2016-04-22T12:14:42.591Z,1012.61
2016-04-22T12:15:42.641Z,1012.6